sensor_id;sensor_type;location;lat;lon;timestamp;pressure;altitude;pressure_sealevel;temperature
45393;BMP280;31129;44.810;10.334;2023-06-24T00:00:56;100825.69;;;27.31
45393;BMP280;31129;44.810;10.334;2023-06-24T00:03:22;100823.03;;;27.42
45393;BMP280;31129;44.810;10.334;2023-06-24T00:05:47;100833.38;;;27.40
45393;BMP280;31129;44.810;10.334;2023-06-24T00:08:18;100828.06;;;27.44
45393;BMP280;31129;44.810;10.334;2023-06-24T00:10:48;100824.69;;;27.55
45393;BMP280;31129;44.810;10.334;2023-06-24T00:13:15;100830.44;;;27.47
45393;BMP280;31129;44.810;10.334;2023-06-24T00:15:41;100832.50;;;27.47
45393;BMP280;31129;44.810;10.334;2023-06-24T00:18:09;100840.16;;;27.37
45393;BMP280;31129;44.810;10.334;2023-06-24T00:20:35;100845.56;;;27.06
45393;BMP280;31129;44.810;10.334;2023-06-24T00:23:01;100835.31;;;26.82
45393;BMP280;31129;44.810;10.334;2023-06-24T00:25:26;100839.06;;;26.67
45393;BMP280;31129;44.810;10.334;2023-06-24T00:27:52;100834.34;;;26.69
45393;BMP280;31129;44.810;10.334;2023-06-24T00:30:18;100836.78;;;26.83
45393;BMP280;31129;44.810;10.334;2023-06-24T00:32:43;100841.09;;;26.93
45393;BMP280;31129;44.810;10.334;2023-06-24T00:35:09;100834.00;;;26.92
45393;BMP280;31129;44.810;10.334;2023-06-24T00:37:38;100825.84;;;26.77
45393;BMP280;31129;44.810;10.334;2023-06-24T00:40:04;100824.81;;;26.82
45393;BMP280;31129;44.810;10.334;2023-06-24T00:42:30;100818.03;;;26.76
45393;BMP280;31129;44.810;10.334;2023-06-24T00:44:56;100812.03;;;26.89
45393;BMP280;31129;44.810;10.334;2023-06-24T00:47:22;100809.00;;;26.67
45393;BMP280;31129;44.810;10.334;2023-06-24T00:49:49;100814.03;;;26.79
45393;BMP280;31129;44.810;10.334;2023-06-24T00:52:14;100820.28;;;26.87
45393;BMP280;31129;44.810;10.334;2023-06-24T00:54:42;100809.34;;;26.81
45393;BMP280;31129;44.810;10.334;2023-06-24T00:57:10;100812.41;;;26.76
45393;BMP280;31129;44.810;10.334;2023-06-24T00:59:37;100812.19;;;26.91
45393;BMP280;31129;44.810;10.334;2023-06-24T01:02:04;100819.19;;;26.73
45393;BMP280;31129;44.810;10.334;2023-06-24T01:04:33;100822.56;;;26.71
45393;BMP280;31129;44.810;10.334;2023-06-24T01:07:00;100826.03;;;26.89
45393;BMP280;31129;44.810;10.334;2023-06-24T01:09:25;100823.63;;;26.76
45393;BMP280;31129;44.810;10.334;2023-06-24T01:11:51;100825.81;;;26.67
45393;BMP280;31129;44.810;10.334;2023-06-24T01:14:17;100817.22;;;26.56
45393;BMP280;31129;44.810;10.334;2023-06-24T01:17:09;100823.50;;;26.47
45393;BMP280;31129;44.810;10.334;2023-06-24T01:22:52;100825.84;;;26.23
45393;BMP280;31129;44.810;10.334;2023-06-24T01:36:33;100824.34;;;25.61
45393;BMP280;31129;44.810;10.334;2023-06-24T01:39:04;100824.03;;;25.57
45393;BMP280;31129;44.810;10.334;2023-06-24T01:41:37;100820.56;;;25.49
45393;BMP280;31129;44.810;10.334;2023-06-24T01:44:08;100808.78;;;25.33
45393;BMP280;31129;44.810;10.334;2023-06-24T01:46:35;100809.53;;;25.34
45393;BMP280;31129;44.810;10.334;2023-06-24T01:49:04;100812.69;;;25.13
45393;BMP280;31129;44.810;10.334;2023-06-24T01:51:32;100819.03;;;25.14
45393;BMP280;31129;44.810;10.334;2023-06-24T01:54:00;100823.88;;;25.13
45393;BMP280;31129;44.810;10.334;2023-06-24T01:56:27;100816.63;;;25.10
45393;BMP280;31129;44.810;10.334;2023-06-24T01:58:58;100821.56;;;25.02
45393;BMP280;31129;44.810;10.334;2023-06-24T02:01:26;100828.09;;;24.97
45393;BMP280;31129;44.810;10.334;2023-06-24T02:03:56;100836.25;;;24.78
45393;BMP280;31129;44.810;10.334;2023-06-24T02:06:24;100844.63;;;24.78
45393;BMP280;31129;44.810;10.334;2023-06-24T02:08:50;100849.25;;;24.83
45393;BMP280;31129;44.810;10.334;2023-06-24T02:11:18;100838.66;;;24.81
45393;BMP280;31129;44.810;10.334;2023-06-24T02:13:44;100842.09;;;24.65
45393;BMP280;31129;44.810;10.334;2023-06-24T02:16:16;100836.59;;;24.50
45393;BMP280;31129;44.810;10.334;2023-06-24T02:18:42;100842.19;;;24.50
45393;BMP280;31129;44.810;10.334;2023-06-24T02:21:10;100848.41;;;24.65
45393;BMP280;31129;44.810;10.334;2023-06-24T02:23:39;100852.28;;;24.37
45393;BMP280;31129;44.810;10.334;2023-06-24T02:26:06;100841.69;;;24.36
45393;BMP280;31129;44.810;10.334;2023-06-24T02:28:32;100839.47;;;24.27
45393;BMP280;31129;44.810;10.334;2023-06-24T02:30:59;100838.22;;;24.13
45393;BMP280;31129;44.810;10.334;2023-06-24T02:33:25;100852.31;;;24.22
45393;BMP280;31129;44.810;10.334;2023-06-24T02:35:52;100847.88;;;24.19
45393;BMP280;31129;44.810;10.334;2023-06-24T02:38:17;100845.44;;;24.31
45393;BMP280;31129;44.810;10.334;2023-06-24T02:40:46;100848.28;;;24.16
45393;BMP280;31129;44.810;10.334;2023-06-24T02:43:13;100844.94;;;24.10
45393;BMP280;31129;44.810;10.334;2023-06-24T02:45:39;100850.91;;;24.14
45393;BMP280;31129;44.810;10.334;2023-06-24T02:48:07;100846.06;;;24.07
45393;BMP280;31129;44.810;10.334;2023-06-24T02:50:34;100845.56;;;23.93
45393;BMP280;31129;44.810;10.334;2023-06-24T02:53:01;100845.56;;;24.01
45393;BMP280;31129;44.810;10.334;2023-06-24T02:55:32;100855.56;;;24.04
45393;BMP280;31129;44.810;10.334;2023-06-24T02:58:02;100859.53;;;23.85
45393;BMP280;31129;44.810;10.334;2023-06-24T03:00:42;100858.38;;;23.88
45393;BMP280;31129;44.810;10.334;2023-06-24T03:03:07;100863.59;;;23.77
45393;BMP280;31129;44.810;10.334;2023-06-24T03:05:36;100871.81;;;23.75
45393;BMP280;31129;44.810;10.334;2023-06-24T03:08:02;100868.66;;;23.71
45393;BMP280;31129;44.810;10.334;2023-06-24T03:10:29;100871.81;;;23.75
45393;BMP280;31129;44.810;10.334;2023-06-24T03:12:56;100862.16;;;23.68
45393;BMP280;31129;44.810;10.334;2023-06-24T03:15:29;100868.44;;;23.76
45393;BMP280;31129;44.810;10.334;2023-06-24T03:17:54;100873.84;;;23.67
45393;BMP280;31129;44.810;10.334;2023-06-24T03:20:20;100881.09;;;23.70
45393;BMP280;31129;44.810;10.334;2023-06-24T03:22:46;100869.03;;;23.60
45393;BMP280;31129;44.810;10.334;2023-06-24T03:25:14;100886.28;;;23.58
45393;BMP280;31129;44.810;10.334;2023-06-24T03:27:41;100889.28;;;23.60
45393;BMP280;31129;44.810;10.334;2023-06-24T03:30:07;100892.06;;;23.68
45393;BMP280;31129;44.810;10.334;2023-06-24T03:32:35;100895.22;;;23.64
45393;BMP280;31129;44.810;10.334;2023-06-24T03:35:02;100899.50;;;23.50
45393;BMP280;31129;44.810;10.334;2023-06-24T03:37:28;100899.28;;;23.48
45393;BMP280;31129;44.810;10.334;2023-06-24T03:39:53;100900.03;;;23.48
45393;BMP280;31129;44.810;10.334;2023-06-24T03:42:20;100906.00;;;23.52
45393;BMP280;31129;44.810;10.334;2023-06-24T03:44:46;100908.59;;;23.35
45393;BMP280;31129;44.810;10.334;2023-06-24T03:47:11;100911.75;;;23.39
45393;BMP280;31129;44.810;10.334;2023-06-24T03:49:37;100910.41;;;23.33
45393;BMP280;31129;44.810;10.334;2023-06-24T03:52:02;100923.06;;;23.34
45393;BMP280;31129;44.810;10.334;2023-06-24T03:54:29;100927.88;;;23.33
45393;BMP280;31129;44.810;10.334;2023-06-24T03:56:54;100915.81;;;23.31
45393;BMP280;31129;44.810;10.334;2023-06-24T03:59:20;100908.38;;;23.26
45393;BMP280;31129;44.810;10.334;2023-06-24T04:01:45;100923.22;;;23.13
45393;BMP280;31129;44.810;10.334;2023-06-24T04:04:11;100919.53;;;23.33
45393;BMP280;31129;44.810;10.334;2023-06-24T04:06:36;100927.16;;;23.40
45393;BMP280;31129;44.810;10.334;2023-06-24T04:09:01;100928.66;;;23.41
45393;BMP280;31129;44.810;10.334;2023-06-24T04:11:27;100927.34;;;23.27
45393;BMP280;31129;44.810;10.334;2023-06-24T04:13:53;100929.41;;;23.42
45393;BMP280;31129;44.810;10.334;2023-06-24T04:16:18;100935.53;;;23.93
45393;BMP280;31129;44.810;10.334;2023-06-24T04:18:44;100939.22;;;23.66
45393;BMP280;31129;44.810;10.334;2023-06-24T04:21:10;100942.41;;;23.54
45393;BMP280;31129;44.810;10.334;2023-06-24T04:23:35;100940.56;;;23.42
45393;BMP280;31129;44.810;10.334;2023-06-24T04:26:01;100946.63;;;23.33
45393;BMP280;31129;44.810;10.334;2023-06-24T04:28:26;100947.59;;;23.43
45393;BMP280;31129;44.810;10.334;2023-06-24T04:30:52;100953.34;;;23.45
45393;BMP280;31129;44.810;10.334;2023-06-24T04:33:17;100947.41;;;23.94
45393;BMP280;31129;44.810;10.334;2023-06-24T04:35:43;100953.34;;;24.21
45393;BMP280;31129;44.810;10.334;2023-06-24T04:38:10;100946.31;;;23.89
45393;BMP280;31129;44.810;10.334;2023-06-24T04:40:36;100955.81;;;23.79
45393;BMP280;31129;44.810;10.334;2023-06-24T04:43:02;100947.44;;;23.56
45393;BMP280;31129;44.810;10.334;2023-06-24T04:45:27;100955.41;;;23.67
45393;BMP280;31129;44.810;10.334;2023-06-24T04:47:53;100959.13;;;23.62
45393;BMP280;31129;44.810;10.334;2023-06-24T04:50:21;100953.72;;;23.79
45393;BMP280;31129;44.810;10.334;2023-06-24T04:52:52;100960.06;;;23.80
45393;BMP280;31129;44.810;10.334;2023-06-24T04:55:19;100957.84;;;23.78
45393;BMP280;31129;44.810;10.334;2023-06-24T04:57:45;100969.28;;;24.43
45393;BMP280;31129;44.810;10.334;2023-06-24T05:00:10;100963.94;;;24.30
45393;BMP280;31129;44.810;10.334;2023-06-24T05:02:36;100963.16;;;24.37
45393;BMP280;31129;44.810;10.334;2023-06-24T05:05:01;100962.69;;;24.01
45393;BMP280;31129;44.810;10.334;2023-06-24T05:07:27;100968.81;;;23.91
45393;BMP280;31129;44.810;10.334;2023-06-24T05:09:52;100968.41;;;23.80
45393;BMP280;31129;44.810;10.334;2023-06-24T05:12:18;100974.38;;;23.69
45393;BMP280;31129;44.810;10.334;2023-06-24T05:14:43;100979.03;;;23.81
45393;BMP280;31129;44.810;10.334;2023-06-24T05:17:09;100976.41;;;23.76
45393;BMP280;31129;44.810;10.334;2023-06-24T05:19:34;100982.75;;;23.84
45393;BMP280;31129;44.810;10.334;2023-06-24T05:22:00;100978.28;;;24.11
45393;BMP280;31129;44.810;10.334;2023-06-24T05:24:25;100986.06;;;24.35
45393;BMP280;31129;44.810;10.334;2023-06-24T05:26:52;100973.88;;;24.63
45393;BMP280;31129;44.810;10.334;2023-06-24T05:29:18;100972.69;;;24.81
45393;BMP280;31129;44.810;10.334;2023-06-24T05:31:43;100974.84;;;24.98
45393;BMP280;31129;44.810;10.334;2023-06-24T05:34:09;100980.78;;;25.02
45393;BMP280;31129;44.810;10.334;2023-06-24T05:36:35;100990.44;;;24.61
45393;BMP280;31129;44.810;10.334;2023-06-24T05:39:00;100982.28;;;24.56
45393;BMP280;31129;44.810;10.334;2023-06-24T05:41:26;100979.91;;;24.37
45393;BMP280;31129;44.810;10.334;2023-06-24T05:44:07;100981.59;;;24.32
45393;BMP280;31129;44.810;10.334;2023-06-24T05:46:33;100998.69;;;24.44
45393;BMP280;31129;44.810;10.334;2023-06-24T05:48:58;101006.72;;;24.32
45393;BMP280;31129;44.810;10.334;2023-06-24T05:51:24;101008.94;;;24.26
45393;BMP280;31129;44.810;10.334;2023-06-24T05:53:49;101000.53;;;24.41
45393;BMP280;31129;44.810;10.334;2023-06-24T05:56:15;100997.13;;;24.58
45393;BMP280;31129;44.810;10.334;2023-06-24T05:58:40;101004.44;;;24.54
45393;BMP280;31129;44.810;10.334;2023-06-24T06:01:07;101005.91;;;24.55
45393;BMP280;31129;44.810;10.334;2023-06-24T06:03:32;101003.63;;;24.76
45393;BMP280;31129;44.810;10.334;2023-06-24T06:05:58;101005.63;;;24.83
45393;BMP280;31129;44.810;10.334;2023-06-24T06:08:23;101015.09;;;24.95
45393;BMP280;31129;44.810;10.334;2023-06-24T06:10:49;101004.44;;;25.01
45393;BMP280;31129;44.810;10.334;2023-06-24T06:13:14;101014.25;;;25.10
45393;BMP280;31129;44.810;10.334;2023-06-24T06:15:39;101018.16;;;25.14
45393;BMP280;31129;44.810;10.334;2023-06-24T06:18:05;101016.84;;;25.23
45393;BMP280;31129;44.810;10.334;2023-06-24T06:20:33;101017.16;;;25.27
45393;BMP280;31129;44.810;10.334;2023-06-24T06:22:58;101023.69;;;25.29
45393;BMP280;31129;44.810;10.334;2023-06-24T06:25:24;101024.75;;;25.34
45393;BMP280;31129;44.810;10.334;2023-06-24T06:27:49;101031.78;;;25.43
45393;BMP280;31129;44.810;10.334;2023-06-24T06:30:15;101035.38;;;25.60
45393;BMP280;31129;44.810;10.334;2023-06-24T06:32:40;101050.44;;;25.65
45393;BMP280;31129;44.810;10.334;2023-06-24T06:35:06;101045.09;;;25.84
45393;BMP280;31129;44.810;10.334;2023-06-24T06:37:32;101053.22;;;25.97
45393;BMP280;31129;44.810;10.334;2023-06-24T06:39:57;101052.16;;;26.10
45393;BMP280;31129;44.810;10.334;2023-06-24T06:42:23;101055.06;;;25.95
45393;BMP280;31129;44.810;10.334;2023-06-24T06:44:48;101051.50;;;26.02
45393;BMP280;31129;44.810;10.334;2023-06-24T06:47:14;101054.69;;;25.98
45393;BMP280;31129;44.810;10.334;2023-06-24T06:49:39;101053.47;;;26.09
45393;BMP280;31129;44.810;10.334;2023-06-24T06:52:05;101051.34;;;26.17
45393;BMP280;31129;44.810;10.334;2023-06-24T06:54:31;101050.31;;;26.47
45393;BMP280;31129;44.810;10.334;2023-06-24T06:57:03;101049.13;;;26.15
45393;BMP280;31129;44.810;10.334;2023-06-24T06:59:32;101064.38;;;26.39
45393;BMP280;31129;44.810;10.334;2023-06-24T07:01:57;101057.72;;;26.35
45393;BMP280;31129;44.810;10.334;2023-06-24T07:04:23;101051.63;;;26.29
45393;BMP280;31129;44.810;10.334;2023-06-24T07:06:49;101057.44;;;26.40
45393;BMP280;31129;44.810;10.334;2023-06-24T07:09:14;101058.47;;;26.35
45393;BMP280;31129;44.810;10.334;2023-06-24T07:11:43;101052.53;;;26.48
45393;BMP280;31129;44.810;10.334;2023-06-24T07:14:09;101060.44;;;26.77
45393;BMP280;31129;44.810;10.334;2023-06-24T07:16:35;101053.66;;;26.80
45393;BMP280;31129;44.810;10.334;2023-06-24T07:19:01;101066.09;;;26.69
45393;BMP280;31129;44.810;10.334;2023-06-24T07:21:26;101073.19;;;26.70
45393;BMP280;31129;44.810;10.334;2023-06-24T07:23:51;101069.25;;;26.73
45393;BMP280;31129;44.810;10.334;2023-06-24T07:26:17;101072.25;;;27.02
45393;BMP280;31129;44.810;10.334;2023-06-24T07:28:43;101077.28;;;27.30
45393;BMP280;31129;44.810;10.334;2023-06-24T07:31:08;101069.41;;;27.46
45393;BMP280;31129;44.810;10.334;2023-06-24T07:33:34;101069.00;;;27.49
45393;BMP280;31129;44.810;10.334;2023-06-24T07:36:00;101066.13;;;27.67
45393;BMP280;31129;44.810;10.334;2023-06-24T07:38:25;101070.63;;;27.79
45393;BMP280;31129;44.810;10.334;2023-06-24T07:40:51;101069.72;;;27.86
45393;BMP280;31129;44.810;10.334;2023-06-24T07:43:16;101072.69;;;27.79
45393;BMP280;31129;44.810;10.334;2023-06-24T07:45:42;101067.56;;;27.94
45393;BMP280;31129;44.810;10.334;2023-06-24T07:48:08;101066.22;;;28.05
45393;BMP280;31129;44.810;10.334;2023-06-24T07:50:33;101075.81;;;28.02
45393;BMP280;31129;44.810;10.334;2023-06-24T07:53:00;101078.38;;;28.27
45393;BMP280;31129;44.810;10.334;2023-06-24T07:55:25;101073.47;;;28.18
45393;BMP280;31129;44.810;10.334;2023-06-24T07:57:51;101069.38;;;28.28
45393;BMP280;31129;44.810;10.334;2023-06-24T08:00:19;101076.28;;;28.18
45393;BMP280;31129;44.810;10.334;2023-06-24T08:02:44;101067.28;;;28.29
45393;BMP280;31129;44.810;10.334;2023-06-24T08:05:10;101078.09;;;28.42
45393;BMP280;31129;44.810;10.334;2023-06-24T08:07:37;101075.59;;;28.55
45393;BMP280;31129;44.810;10.334;2023-06-24T08:10:03;101073.81;;;28.60
45393;BMP280;31129;44.810;10.334;2023-06-24T08:12:28;101076.75;;;28.72
45393;BMP280;31129;44.810;10.334;2023-06-24T08:14:54;101071.59;;;28.58
45393;BMP280;31129;44.810;10.334;2023-06-24T08:17:19;101075.13;;;28.59
45393;BMP280;31129;44.810;10.334;2023-06-24T08:19:44;101072.75;;;28.75
45393;BMP280;31129;44.810;10.334;2023-06-24T08:22:10;101073.94;;;28.91
45393;BMP280;31129;44.810;10.334;2023-06-24T08:24:36;101077.75;;;28.95
45393;BMP280;31129;44.810;10.334;2023-06-24T08:27:01;101073.47;;;28.94
45393;BMP280;31129;44.810;10.334;2023-06-24T08:29:27;101073.00;;;29.07
45393;BMP280;31129;44.810;10.334;2023-06-24T08:31:53;101076.56;;;28.98
45393;BMP280;31129;44.810;10.334;2023-06-24T08:34:18;101069.84;;;29.13
45393;BMP280;31129;44.810;10.334;2023-06-24T08:36:43;101070.72;;;29.25
45393;BMP280;31129;44.810;10.334;2023-06-24T08:39:09;101068.00;;;29.37
45393;BMP280;31129;44.810;10.334;2023-06-24T08:41:34;101069.97;;;29.25
45393;BMP280;31129;44.810;10.334;2023-06-24T08:44:00;101073.03;;;29.38
45393;BMP280;31129;44.810;10.334;2023-06-24T08:46:25;101066.69;;;29.38
45393;BMP280;31129;44.810;10.334;2023-06-24T08:51:43;101070.22;;;29.38
45393;BMP280;31129;44.810;10.334;2023-06-24T08:54:13;101069.91;;;29.44
45393;BMP280;31129;44.810;10.334;2023-06-24T08:56:40;101074.75;;;29.53
45393;BMP280;31129;44.810;10.334;2023-06-24T08:59:06;101076.84;;;29.52
45393;BMP280;31129;44.810;10.334;2023-06-24T09:01:32;101077.09;;;29.56
45393;BMP280;31129;44.810;10.334;2023-06-24T09:03:57;101074.66;;;29.72
45393;BMP280;31129;44.810;10.334;2023-06-24T09:06:23;101071.75;;;29.60
45393;BMP280;31129;44.810;10.334;2023-06-24T09:08:53;101074.94;;;29.76
45393;BMP280;31129;44.810;10.334;2023-06-24T09:11:22;101083.72;;;29.92
45393;BMP280;31129;44.810;10.334;2023-06-24T09:13:54;101069.13;;;29.53
45393;BMP280;31129;44.810;10.334;2023-06-24T09:16:23;101066.06;;;29.70
45393;BMP280;31129;44.810;10.334;2023-06-24T09:18:49;101065.53;;;29.83
45393;BMP280;31129;44.810;10.334;2023-06-24T09:21:22;101066.19;;;29.72
45393;BMP280;31129;44.810;10.334;2023-06-24T09:23:53;101068.38;;;29.83
45393;BMP280;31129;44.810;10.334;2023-06-24T09:26:26;101062.94;;;29.97
45393;BMP280;31129;44.810;10.334;2023-06-24T09:28:52;101060.47;;;30.13
45393;BMP280;31129;44.810;10.334;2023-06-24T09:31:18;101067.59;;;30.14
45393;BMP280;31129;44.810;10.334;2023-06-24T09:33:44;101062.59;;;30.24
45393;BMP280;31129;44.810;10.334;2023-06-24T09:36:14;101053.81;;;30.08
45393;BMP280;31129;44.810;10.334;2023-06-24T09:38:41;101057.63;;;29.91
45393;BMP280;31129;44.810;10.334;2023-06-24T09:41:08;101047.88;;;30.14
45393;BMP280;31129;44.810;10.334;2023-06-24T09:43:34;101052.09;;;30.36
45393;BMP280;31129;44.810;10.334;2023-06-24T09:46:02;101046.53;;;30.59
45393;BMP280;31129;44.810;10.334;2023-06-24T09:48:27;101040.78;;;30.57
45393;BMP280;31129;44.810;10.334;2023-06-24T09:50:55;101041.56;;;30.36
45393;BMP280;31129;44.810;10.334;2023-06-24T09:53:24;101037.41;;;30.37
45393;BMP280;31129;44.810;10.334;2023-06-24T09:55:50;101034.63;;;30.49
45393;BMP280;31129;44.810;10.334;2023-06-24T09:58:18;101034.34;;;30.33
45393;BMP280;31129;44.810;10.334;2023-06-24T10:00:44;101035.34;;;30.17
45393;BMP280;31129;44.810;10.334;2023-06-24T10:03:10;101031.13;;;30.06
45393;BMP280;31129;44.810;10.334;2023-06-24T10:05:36;101031.47;;;30.22
45393;BMP280;31129;44.810;10.334;2023-06-24T10:08:04;101031.19;;;30.18
45393;BMP280;31129;44.810;10.334;2023-06-24T10:10:31;101024.69;;;30.15
45393;BMP280;31129;44.810;10.334;2023-06-24T10:12:57;101023.00;;;30.22
45393;BMP280;31129;44.810;10.334;2023-06-24T10:15:22;101019.59;;;30.23
45393;BMP280;31129;44.810;10.334;2023-06-24T10:17:50;101011.00;;;30.21
45393;BMP280;31129;44.810;10.334;2023-06-24T10:20:24;101014.47;;;30.31
45393;BMP280;31129;44.810;10.334;2023-06-24T10:22:51;101007.78;;;30.48
45393;BMP280;31129;44.810;10.334;2023-06-24T10:25:16;101007.28;;;30.40
45393;BMP280;31129;44.810;10.334;2023-06-24T10:27:43;101012.22;;;30.62
45393;BMP280;31129;44.810;10.334;2023-06-24T10:30:17;101004.53;;;30.75
45393;BMP280;31129;44.810;10.334;2023-06-24T10:32:43;101000.22;;;30.50
45393;BMP280;31129;44.810;10.334;2023-06-24T10:35:22;101005.31;;;30.42
45393;BMP280;31129;44.810;10.334;2023-06-24T10:37:56;100994.25;;;30.35
45393;BMP280;31129;44.810;10.334;2023-06-24T10:43:01;100990.38;;;30.40
45393;BMP280;31129;44.810;10.334;2023-06-24T10:45:26;100991.81;;;30.29
45393;BMP280;31129;44.810;10.334;2023-06-24T10:47:52;100993.72;;;30.15
45393;BMP280;31129;44.810;10.334;2023-06-24T10:50:25;100986.75;;;30.16
45393;BMP280;31129;44.810;10.334;2023-06-24T10:52:52;100989.25;;;30.33
45393;BMP280;31129;44.810;10.334;2023-06-24T10:55:25;100993.81;;;30.38
45393;BMP280;31129;44.810;10.334;2023-06-24T10:57:51;100989.53;;;30.49
45393;BMP280;31129;44.810;10.334;2023-06-24T11:00:16;100992.75;;;30.55
45393;BMP280;31129;44.810;10.334;2023-06-24T11:02:43;100993.06;;;30.38
45393;BMP280;31129;44.810;10.334;2023-06-24T11:05:09;100990.28;;;30.49
45393;BMP280;31129;44.810;10.334;2023-06-24T11:07:36;100984.38;;;30.45
45393;BMP280;31129;44.810;10.334;2023-06-24T11:10:13;100982.59;;;30.61
45393;BMP280;31129;44.810;10.334;2023-06-24T11:12:40;100972.72;;;30.51
45393;BMP280;31129;44.810;10.334;2023-06-24T11:15:11;100973.03;;;30.55
45393;BMP280;31129;44.810;10.334;2023-06-24T11:17:40;100983.84;;;30.70
45393;BMP280;31129;44.810;10.334;2023-06-24T11:20:10;100978.56;;;30.99
45393;BMP280;31129;44.810;10.334;2023-06-24T11:22:36;100976.59;;;31.13
45393;BMP280;31129;44.810;10.334;2023-06-24T11:25:02;100981.97;;;31.21
45393;BMP280;31129;44.810;10.334;2023-06-24T11:27:29;100975.09;;;31.24
45393;BMP280;31129;44.810;10.334;2023-06-24T11:29:57;100974.59;;;31.28
45393;BMP280;31129;44.810;10.334;2023-06-24T11:32:36;100971.34;;;31.56
45393;BMP280;31129;44.810;10.334;2023-06-24T11:35:07;100976.22;;;31.67
45393;BMP280;31129;44.810;10.334;2023-06-24T11:37:32;100961.38;;;31.67
45393;BMP280;31129;44.810;10.334;2023-06-24T11:40:05;100962.91;;;31.93
45393;BMP280;31129;44.810;10.334;2023-06-24T11:42:32;100960.56;;;31.90
45393;BMP280;31129;44.810;10.334;2023-06-24T11:45:05;100956.53;;;31.81
45393;BMP280;31129;44.810;10.334;2023-06-24T11:47:32;100950.50;;;31.87
45393;BMP280;31129;44.810;10.334;2023-06-24T11:49:59;100949.53;;;32.07
45393;BMP280;31129;44.810;10.334;2023-06-24T11:52:41;100946.09;;;32.09
45393;BMP280;31129;44.810;10.334;2023-06-24T11:55:27;100952.63;;;32.25
45393;BMP280;31129;44.810;10.334;2023-06-24T11:58:01;100950.41;;;32.24
45393;BMP280;31129;44.810;10.334;2023-06-24T12:00:35;100945.75;;;32.28
45393;BMP280;31129;44.810;10.334;2023-06-24T12:03:04;100947.28;;;32.31
45393;BMP280;31129;44.810;10.334;2023-06-24T12:05:34;100947.00;;;32.39
45393;BMP280;31129;44.810;10.334;2023-06-24T12:08:00;100943.81;;;32.19
45393;BMP280;31129;44.810;10.334;2023-06-24T12:10:26;100939.44;;;32.30
45393;BMP280;31129;44.810;10.334;2023-06-24T12:12:52;100944.41;;;32.43
45393;BMP280;31129;44.810;10.334;2023-06-24T12:15:17;100940.53;;;32.63
45393;BMP280;31129;44.810;10.334;2023-06-24T12:17:43;100933.84;;;32.84
45393;BMP280;31129;44.810;10.334;2023-06-24T12:20:09;100938.47;;;32.91
45393;BMP280;31129;44.810;10.334;2023-06-24T12:22:37;100940.97;;;32.85
45393;BMP280;31129;44.810;10.334;2023-06-24T12:25:03;100939.91;;;32.65
45393;BMP280;31129;44.810;10.334;2023-06-24T12:27:29;100935.31;;;32.71
45393;BMP280;31129;44.810;10.334;2023-06-24T12:29:54;100940.00;;;33.08
45393;BMP280;31129;44.810;10.334;2023-06-24T12:32:20;100932.59;;;33.01
45393;BMP280;31129;44.810;10.334;2023-06-24T12:34:45;100926.09;;;32.85
45393;BMP280;31129;44.810;10.334;2023-06-24T12:37:11;100924.88;;;33.31
45393;BMP280;31129;44.810;10.334;2023-06-24T12:39:36;100926.78;;;33.26
45393;BMP280;31129;44.810;10.334;2023-06-24T12:42:01;100931.09;;;33.56
45393;BMP280;31129;44.810;10.334;2023-06-24T12:44:27;100924.28;;;33.18
45393;BMP280;31129;44.810;10.334;2023-06-24T12:46:52;100922.28;;;33.21
45393;BMP280;31129;44.810;10.334;2023-06-24T12:49:18;100934.69;;;33.14
45393;BMP280;31129;44.810;10.334;2023-06-24T12:51:43;100919.84;;;33.29
45393;BMP280;31129;44.810;10.334;2023-06-24T12:54:09;100913.75;;;33.64
45393;BMP280;31129;44.810;10.334;2023-06-24T12:56:34;100913.16;;;33.52
45393;BMP280;31129;44.810;10.334;2023-06-24T12:59:00;100911.19;;;33.11
45393;BMP280;31129;44.810;10.334;2023-06-24T13:01:25;100913.53;;;33.31
45393;BMP280;31129;44.810;10.334;2023-06-24T13:03:51;100908.81;;;33.64
45393;BMP280;31129;44.810;10.334;2023-06-24T13:06:16;100904.81;;;33.85
45393;BMP280;31129;44.810;10.334;2023-06-24T13:08:41;100898.63;;;34.04
45393;BMP280;31129;44.810;10.334;2023-06-24T13:11:09;100909.34;;;34.06
45393;BMP280;31129;44.810;10.334;2023-06-24T13:13:34;100906.31;;;34.33
45393;BMP280;31129;44.810;10.334;2023-06-24T13:15:59;100898.28;;;33.96
45393;BMP280;31129;44.810;10.334;2023-06-24T13:18:25;100905.31;;;33.50
45393;BMP280;31129;44.810;10.334;2023-06-24T13:20:51;100906.38;;;33.72
45393;BMP280;31129;44.810;10.334;2023-06-24T13:23:16;100891.22;;;34.13
45393;BMP280;31129;44.810;10.334;2023-06-24T13:25:41;100895.16;;;34.37
45393;BMP280;31129;44.810;10.334;2023-06-24T13:28:07;100892.97;;;34.35
45393;BMP280;31129;44.810;10.334;2023-06-24T13:30:32;100895.38;;;34.92
45393;BMP280;31129;44.810;10.334;2023-06-24T13:32:58;100893.00;;;34.86
45393;BMP280;31129;44.810;10.334;2023-06-24T13:35:23;100899.38;;;35.20
45393;BMP280;31129;44.810;10.334;2023-06-24T13:37:49;100894.50;;;35.05
45393;BMP280;31129;44.810;10.334;2023-06-24T13:40:14;100894.16;;;34.79
45393;BMP280;31129;44.810;10.334;2023-06-24T13:42:39;100885.97;;;34.87
45393;BMP280;31129;44.810;10.334;2023-06-24T13:45:05;100888.19;;;35.24
45393;BMP280;31129;44.810;10.334;2023-06-24T13:47:31;100892.88;;;35.35
45393;BMP280;31129;44.810;10.334;2023-06-24T13:49:56;100874.88;;;34.60
45393;BMP280;31129;44.810;10.334;2023-06-24T13:52:25;100868.50;;;34.77
45393;BMP280;31129;44.810;10.334;2023-06-24T13:54:51;100885.81;;;35.01
45393;BMP280;31129;44.810;10.334;2023-06-24T13:57:17;100891.25;;;35.48
45393;BMP280;31129;44.810;10.334;2023-06-24T13:59:42;100881.44;;;35.33
45393;BMP280;31129;44.810;10.334;2023-06-24T14:02:08;100882.88;;;35.52